Latest Weather Observations for Fort Denison

IDN60901

Issued at 12:41 am EST Monday 25 July 2016 (issued every 10 minutes, with the page automatically refreshed every 10 minutes)

About weather observations | Map of Sydney area stations | Latest observations for Sydney area | Other Formats
Station Details ID: 066022 Name: FORT DENISON Lat: -33.86 Lon: 151.23 Height: 5.0 m
Data from the previous 72 hours. | See also: Recent months for locations in New South Wales
Date/Time
EST
Temp
°C
App
Temp
°C
Dew
Point
°C
Rel
Hum
%
Delta-T
°C
Wind Press
QNH
hPa
Press
MSL
hPa
Rain since
9am
mm
Dir  Spd
km/h
Gust
km/h
Spd
kts
Gust
kts
25/12:30am - - - - - NNW 30 35 16 19 - - -
25/12:00am - - - - - NNW 28 37 15 20 - - -
 
Date/Time
EST
Temp
°C
App
Temp
°C
Dew
Point
°C
Rel
Hum
%
Delta-T
°C
Wind Press
QNH
hPa
Press
MSL
hPa
Rain since
9am
mm
Dir  Spd
km/h
Gust
km/h
Spd
kts
Gust
kts
24/11:30pm - - - - - NNW 20 30 11 16 - - -
24/11:00pm - - - - - NNW 20 28 11 15 - - -
24/10:30pm - - - - - NNW 22 26 12 14 - - -
24/10:00pm - - - - - NNW 22 28 12 15 - - -
24/09:30pm - - - - - NNW 24 28 13 15 - - -
24/09:00pm - - - - - NNW 19 22 10 12 - - -
24/08:30pm - - - - - NNW 19 26 10 14 - - -
24/08:00pm - - - - - NNW 24 32 13 17 - - -
24/07:30pm - - - - - NNW 20 26 11 14 - - -
24/07:00pm - - - - - NNW 13 19 7 10 - - -
24/06:30pm - - - - - NNW 15 19 8 10 - - -
24/06:00pm - - - - - NNW 17 20 9 11 - - -
24/05:30pm - - - - - NNW 17 20 9 11 - - -
24/05:00pm - - - - - NNW 17 22 9 12 - - -
24/04:30pm - - - - - NNW 17 24 9 13 - - -
24/04:00pm - - - - - NW 19 28 10 15 - - -
24/03:30pm - - - - - NW 15 20 8 11 - - -
24/03:00pm - - - - - NW 15 22 8 12 - - -
24/02:30pm - - - - - WNW 20 30 11 16 - - -
24/02:00pm - - - - - W 24 32 13 17 - - -
24/01:30pm - - - - - WNW 19 28 10 15 - - -
24/01:00pm - - - - - W 20 26 11 14 - - -
24/12:30pm - - - - - W 20 30 11 16 - - -
24/12:00pm - - - - - WNW 22 32 12 17 - - -
24/11:30am - - - - - W 24 32 13 17 - - -
24/11:00am - - - - - W 24 30 13 16 - - -
24/10:30am - - - - - W 22 32 12 17 - - -
24/10:00am - - - - - W 24 33 13 18 - - -
24/09:30am - - - - - W 24 32 13 17 - - -
24/09:00am - - - - - W 22 28 12 15 - - -
24/08:30am - - - - - W 24 32 13 17 - - -
24/08:00am - - - - - W 22 32 12 17 - - -
24/07:30am - - - - - W 22 30 12 16 - - -
24/07:00am - - - - - W 20 32 11 17 - - -
24/06:30am - - - - - W 24 32 13 17 - - -
24/06:00am - - - - - WNW 24 33 13 18 - - -
24/05:30am - - - - - WNW 24 32 13 17 - - -
24/05:00am - - - - - W 20 30 11 16 - - -
24/04:30am - - - - - W 24 32 13 17 - - -
24/04:00am - - - - - W 22 30 12 16 - - -
24/03:30am - - - - - W 24 32 13 17 - - -
24/03:00am - - - - - W 32 44 17 24 - - -
24/02:30am - - - - - W 26 37 14 20 - - -
24/02:00am - - - - - WSW 13 24 7 13 - - -
24/01:30am - - - - - SW 6 15 3 8 - - -
24/01:00am - - - - - SSW 17 26 9 14 - - -
24/12:30am - - - - - SW 11 26 6 14 - - -
24/12:00am - - - - - SW 13 26 7 14 - - -
 
Date/Time
EST
Temp
°C
App
Temp
°C
Dew
Point
°C
Rel
Hum
%
Delta-T
°C
Wind Press
QNH
hPa
Press
MSL
hPa
Rain since
9am
mm
Dir  Spd
km/h
Gust
km/h
Spd
kts
Gust
kts
23/11:30pm - - - - - SW 19 35 10 19 - - -
23/11:00pm - - - - - WSW 9 17 5 9 - - -
23/10:30pm - - - - - SW 6 13 3 7 - - -
23/10:00pm - - - - - SW 11 22 6 12 - - -
23/09:30pm - - - - - SW 15 30 8 16 - - -
23/09:00pm - - - - - SW 11 20 6 11 - - -
23/08:30pm - - - - - SW 11 20 6 11 - - -
23/08:00pm - - - - - SW 17 32 9 17 - - -
23/07:30pm - - - - - WSW 13 22 7 12 - - -
23/07:00pm - - - - - WSW 20 32 11 17 - - -
23/06:30pm - - - - - NW 19 28 10 15 - - -
23/06:00pm - - - - - W 20 32 11 17 - - -
23/05:30pm - - - - - W 22 30 12 16 - - -
23/05:00pm - - - - - W 32 43 17 23 - - -
23/04:30pm - - - - - WNW 32 43 17 23 - - -
23/04:00pm - - - - - WNW 37 46 20 25 - - -
23/03:30pm - - - - - W 39 54 21 29 - - -
23/03:00pm - - - - - W 43 61 23 33 - - -
23/02:56pm - - - - - W 39 57 21 31 - - -
23/02:30pm - - - - - W 46 61 25 33 - - -
23/02:21pm - - - - - W 39 57 21 31 - - -
23/02:00pm - - - - - WNW 39 54 21 29 - - -
23/01:32pm - - - - - WNW 28 48 15 26 - - -
23/01:30pm - - - - - WNW 28 39 15 21 - - -
23/01:00pm - - - - - W 41 63 22 34 - - -
23/12:32pm - - - - - W 35 54 19 29 - - -
23/12:30pm - - - - - W 39 54 21 29 - - -
23/12:11pm - - - - - WNW 39 57 21 31 - - -
23/12:00pm - - - - - W 46 59 25 32 - - -
23/11:51am - - - - - WNW 35 54 19 29 - - -
23/11:30am - - - - - W 35 48 19 26 - - -
23/11:14am - - - - - W 35 57 19 31 - - -
23/11:00am - - - - - W 35 50 19 27 - - -
23/10:32am - - - - - WNW 35 54 19 29 - - -
23/10:30am - - - - - W 35 50 19 27 - - -
23/10:05am - - - - - W 30 48 16 26 - - -
23/10:00am - - - - - W 26 39 14 21 - - -
23/09:30am - - - - - WNW 41 63 22 34 - - -
23/09:01am - - - - - WNW 43 61 23 33 - - -
23/09:00am - - - - - WNW 44 61 24 33 - - -
23/08:42am - - - - - WNW 32 52 17 28 - - -
23/08:30am - - - - - WNW 24 33 13 18 - - -
23/08:00am - - - - - W 43 61 23 33 - - -
23/07:41am - - - - - WNW 39 57 21 31 - - -
23/07:30am - - - - - WNW 32 43 17 23 - - -
23/07:00am - - - - - WNW 26 37 14 20 - - -
23/06:30am - - - - - W 26 39 14 21 - - -
23/06:00am - - - - - WSW 28 37 15 20 - - -
23/05:41am - - - - - W 32 50 17 27 - - -
23/05:30am - - - - - WNW 24 39 13 21 - - -
23/05:00am - - - - - WNW 24 39 13 21 - - -
23/04:30am - - - - - WNW 20 28 11 15 - - -
23/04:00am - - - - - W 24 32 13 17 - - -
23/03:30am - - - - - W 26 37 14 20 - - -
23/03:00am - - - - - WNW 20 30 11 16 - - -
23/02:30am - - - - - WNW 13 19 7 10 - - -
23/02:00am - - - - - W 20 30 11 16 - - -
23/01:30am - - - - - WNW 11 17 6 9 - - -
23/01:00am - - - - - SSW 11 28 6 15 - - -
23/12:30am - - - - - SSW 15 22 8 12 - - -
23/12:00am - - - - - SSW 28 48 15 26 - - -
 
Date/Time
EST
Temp
°C
App
Temp
°C
Dew
Point
°C
Rel
Hum
%
Delta-T
°C
Wind Press
QNH
hPa
Press
MSL
hPa
Rain since
9am
mm
Dir  Spd
km/h
Gust
km/h
Spd
kts
Gust
kts
22/11:53pm - - - - - SSW 28 48 15 26 - - -
22/11:30pm - - - - - NNW 20 28 11 15 - - -
22/11:00pm - - - - - N 15 22 8 12 - - -
22/10:30pm - - - - - N 22 28 12 15 - - -
22/10:00pm - - - - - N 19 24 10 13 - - -
22/09:30pm - - - - - N 20 26 11 14 - - -
22/09:00pm - - - - - N 22 32 12 17 - - -
22/08:30pm - - - - - NNW 17 22 9 12 - - -
22/08:00pm - - - - - NNW 24 33 13 18 - - -
22/07:30pm - - - - - NNW 17 28 9 15 - - -
22/07:00pm - - - - - NNW 19 24 10 13 - - -
22/06:30pm - - - - - N 13 17 7 9 - - -
22/06:00pm - - - - - NNW 20 26 11 14 - - -
22/05:30pm - - - - - NW 28 39 15 21 - - -
22/05:00pm - - - - - NW 32 46 17 25 - - -
22/04:30pm - - - - - NW 28 37 15 20 - - -
22/04:00pm - - - - - NW 24 30 13 16 - - -
22/03:37pm - - - - - NW 28 46 15 25 - - -
22/03:30pm - - - - - NW 20 46 11 25 - - -
22/03:07pm - - - - - NW 28 46 15 25 - - -
22/03:00pm - - - - - NW 30 46 16 25 - - -
22/02:57pm - - - - - NNW 28 46 15 25 - - -
22/02:30pm - - - - - NNW 28 39 15 21 - - -
22/02:00pm - - - - - NNW 26 37 14 20 - - -
22/01:30pm - - - - - NNW 28 43 15 23 - - -
22/01:00pm - - - - - NNW 30 50 16 27 - - -
22/12:51pm - - - - - NNW 30 50 16 27 - - -
22/12:30pm - - - - - NNW 26 35 14 19 - - -
22/12:00pm - - - - - NNW 28 41 15 22 - - -
22/11:30am - - - - - N 32 44 17 24 - - -
22/11:00am - - - - - NNW 24 39 13 21 - - -
22/10:30am - - - - - N 26 37 14 20 - - -
22/10:25am - - - - - N 28 46 15 25 - - -
22/10:00am - - - - - N 32 44 17 24 - - -
22/09:57am - - - - - N 32 50 17 27 - - -
22/09:30am - - - - - NNW 33 44 18 24 - - -
22/09:00am - - - - - NNW 30 39 16 21 - - -
22/08:30am - - - - - NNW 33 43 18 23 - - -
22/08:00am - - - - - NW 24 37 13 20 - - -
22/07:30am - - - - - WNW 19 28 10 15 - - -
22/07:00am - - - - - WNW 19 28 10 15 - - -
22/06:30am - - - - - NW 15 20 8 11 - - -
22/06:00am - - - - - NW 11 19 6 10 - - -
22/05:30am - - - - - W 13 17 7 9 - - -
22/05:00am - - - - - W 20 24 11 13 - - -
22/04:30am - - - - - W 13 19 7 10 - - -
22/04:00am - - - - - W 11 13 6 7 - - -
22/03:30am - - - - - WSW 9 11 5 6 - - -
22/03:00am - - - - - W 17 20 9 11 - - -
22/02:30am - - - - - W 20 22 11 12 - - -
22/02:00am - - - - - WNW 19 20 10 11 - - -
22/01:30am - - - - - WNW 11 13 6 7 - - -
22/01:00am - - - - - WNW 11 13 6 7 - - -

Latest Capital City Observations: Canberra | Sydney | Melbourne | Brisbane | Adelaide | Perth | Hobart | Darwin

Other Formats:

Comma delimited format used in spreadsheet applications
http://www.bom.gov.au/fwo/IDN60901/IDN60901.94769.axf

JavaScript Object Notation format (JSON) in row-major order
http://www.bom.gov.au/fwo/IDN60901/IDN60901.94769.json